createdAt,value
2018-11-05T00:01:07.276Z,99931.00
2018-11-05T00:03:34.790Z,99925.00
2018-11-05T00:06:02.296Z,99910.00
2018-11-05T00:08:29.803Z,99902.00
2018-11-05T00:10:57.307Z,99908.00
2018-11-05T00:13:24.827Z,99891.00
2018-11-05T00:15:52.326Z,99893.00
2018-11-05T00:18:19.863Z,99899.00
2018-11-05T00:20:47.377Z,99886.00
2018-11-05T00:23:14.896Z,99899.00
2018-11-05T00:25:42.411Z,99905.00
2018-11-05T00:28:09.915Z,99914.00
2018-11-05T00:30:37.409Z,99901.00
2018-11-05T00:33:04.936Z,99909.00
2018-11-05T00:35:32.454Z,99892.00
2018-11-05T00:37:59.971Z,99894.00
2018-11-05T00:40:27.470Z,99901.00
2018-11-05T00:42:54.988Z,99888.00
2018-11-05T00:45:22.489Z,99891.00
2018-11-05T00:47:50.216Z,99884.00
2018-11-05T00:50:17.782Z,99886.00
2018-11-05T00:52:45.294Z,99873.00
2018-11-05T00:55:13.152Z,99876.00
2018-11-05T00:57:40.667Z,99877.00
2018-11-05T01:00:14.411Z,99887.00
2018-11-05T01:02:42.205Z,99893.00
2018-11-05T01:05:11.167Z,99888.00
2018-11-05T01:07:38.968Z,99863.00
2018-11-05T01:10:07.721Z,99867.00
2018-11-05T01:12:35.605Z,99874.00
2018-11-05T01:15:03.139Z,99859.00
2018-11-05T01:17:30.651Z,99847.00
2018-11-05T01:19:58.153Z,99848.00
2018-11-05T01:22:25.643Z,99846.00
2018-11-05T01:24:53.148Z,99856.00
2018-11-05T01:27:20.648Z,99852.00
2018-11-05T01:29:48.152Z,99846.00
2018-11-05T01:32:15.642Z,99845.00
2018-11-05T01:34:43.139Z,99854.00
2018-11-05T01:37:10.701Z,99849.00
2018-11-05T01:39:38.156Z,99844.00
2018-11-05T01:42:05.668Z,99844.00
2018-11-05T01:44:33.188Z,99841.00
2018-11-05T01:47:00.699Z,99847.00
2018-11-05T01:49:28.204Z,99847.00
2018-11-05T01:51:55.717Z,99832.00
2018-11-05T01:54:23.241Z,99843.00
2018-11-05T01:56:50.756Z,99858.00
2018-11-05T01:59:19.532Z,99850.00
2018-11-05T02:01:47.047Z,99850.00
2018-11-05T02:04:14.557Z,99846.00
2018-11-05T02:06:42.069Z,99864.00
